NOAA/GLERL Met Station at Michigan City, IN

Previous 5 days (top of hour only)
See slso Previous 3 Hours (2 minute increments)
Jump down to Data
Switch to [English][Metric]
Zoom: Click and drag, Pan: shift-click and drag, Unzoom: double-click, Unzoom All





Zoom: Click and drag, Pan: shift-click and drag, Unzoom: double-click, Unzoom All

Note: Speed = mean wind during 2-minute period at top of hour,
Gust = max wind during 2-minute period at top of hour,
Peak = max wind during entire hour.
• See also 5-day windrose plot

NOAA/GLERL Met Station at Michigan City, IN

Previous 5 days (top of hour only)
See slso Previous 3 Hours (2 minute increments)
Jump up to Graphs
Switch to [English][Metric]
                  Wind  Wind  Wind   Air   Dew   Rel     Sta   PAR
                   Spd   Gst   Dir  Temp    Pt   Hum    Pres uE/m2/
YYYY-MM-DD   CDT   kts   kts   deg     F     F     %   in Hg   sec
2016-06-30 03:00   6.8   8.7   150  64.6  43.9  46.6    0.00     0
2016-06-30 02:00   5.8   6.8   139  63.9  46.6  52.9    0.00     0
2016-06-30 01:00   5.1   5.4   140  63.0  47.7  57.1    0.00     0
2016-06-30 00:00   4.1   4.5   127  63.7  48.3  56.8    0.00     0
2016-06-29 23:00   3.5   3.9   106  64.6  48.4  55.2    0.00     0
2016-06-29 22:00   1.9   2.1   114  66.4  48.5  52.0    0.00     0
2016-06-29 21:00   2.9   3.3   103  68.9  46.6  44.3    0.00     0
2016-06-29 20:00   1.6   1.9    44  69.3  47.7  45.6    0.00     0
2016-06-29 19:00   6.6   7.2    23  68.2  51.8  55.3    0.00     0
2016-06-29 18:00   6.4   6.6    30  67.5  48.8  50.7    0.00     0
2016-06-29 16:00   4.1   4.9   357  66.7  43.6  42.7    0.00     0
2016-06-29 15:00   4.3   4.9   353  68.7  44.7  41.5    0.00     0
2016-06-29 14:00   4.1   4.7   347  66.9  46.6  47.6    0.00     0
2016-06-29 13:00   3.7   4.9   300  67.6  47.5  48.0    0.00     0
2016-06-29 12:00   5.1   6.0    14  64.2  48.8  56.9    0.00     0
2016-06-29 11:00   6.8   8.0   352  65.1  49.2  55.9    0.00     0
2016-06-29 10:00   7.4   8.2   357  64.0  49.4  58.5    0.00     0
2016-06-29 09:00   8.0   8.6    18  63.3  50.0  61.4    0.00     0
2016-06-29 08:00   8.0   8.9   351  63.5  51.4  64.3    0.00     0
2016-06-29 07:00  11.3  12.8   356  63.3  52.3  67.0    0.00     0
2016-06-29 06:00  11.9  13.0   345  63.3  53.0  68.6    0.00     0
2016-06-29 05:00  10.5  12.2   354  63.3  53.4  69.8    0.00     0
2016-06-29 04:00   8.6  10.1   329  63.1  54.1  72.0    0.00     0
2016-06-29 03:00   5.1   6.0   328  62.8  54.9  75.1    0.00     0
2016-06-29 02:00   1.6   2.7    70  61.9  53.0  72.2    0.00     0
2016-06-29 01:00   9.7  11.3     9  63.5  51.1  63.5    0.00     0
2016-06-29 00:00  12.4  13.4   359  64.2  45.9  50.9    0.00     0
2016-06-28 23:00  17.3  19.1   358  64.2  45.8  50.8    0.00     0
2016-06-28 22:00  17.1  18.7     2  63.9  46.4  52.6    0.00     0
2016-06-28 21:00  17.9  19.6   349  63.9  47.5  54.9    0.00     0
2016-06-28 20:00  19.8  22.0   352  63.9  45.5  50.9    0.00     0
2016-06-28 19:00  21.0  22.6   342  63.7  43.1  46.6    0.00     0
2016-06-28 18:00  22.4  24.9   349  62.8  43.2  48.3    0.00     0
2016-06-28 17:00  15.7  18.1   338  62.4  49.3  61.8    0.00     0
2016-06-28 16:00  18.3  20.4   343  60.8  49.4  65.8    0.00     0
2016-06-28 15:00  19.2  22.4   325  61.2  51.5  70.2    0.00     0
2016-06-28 14:00  20.4  22.4   336  61.2  53.0  74.2    0.00     0
2016-06-28 13:00  21.2  24.1   332  61.5  52.7  72.4    0.00     0
2016-06-28 12:00  20.6  24.3   333  62.6  52.6  69.4    0.00     0
2016-06-28 11:00  20.2  22.2   322  61.9  52.1  69.9    0.00     0
2016-06-28 10:00  15.9  18.5   348  61.9  52.8  71.8    0.00     0
2016-06-28 09:00  17.9  20.0   346  61.7  53.4  73.9    0.00     0
2016-06-28 08:00  16.9  18.7   354  61.9  54.0  75.0    0.00     0
2016-06-28 07:00  23.1  24.5   345  63.7  53.7  69.5    0.00     0
2016-06-28 06:00  23.1  24.9     2  63.9  56.5  76.6    0.00     0
2016-06-28 04:00  22.2  23.9   353  64.9  57.9  77.7    0.00     0
2016-06-28 03:00  20.4  21.8   352  65.8  58.3  76.4    0.00     0
2016-06-28 02:00  17.1  18.3   341  67.6  60.8  78.5    0.00     0
2016-06-28 01:00  11.3  12.4   335  70.3  58.2  64.9    0.00     0
2016-06-28 00:00   8.4   9.5   334  70.5  59.1  66.7    0.00     0
2016-06-27 23:00   7.0   7.4   346  70.5  58.6  65.6    0.00     0
2016-06-27 22:00   8.6   9.5    11  70.9  59.6  67.1    0.00     0
2016-06-27 21:00  11.5  12.4    14  70.7  60.0  68.4    0.00     0
2016-06-27 20:00  13.2  14.2    19  71.1  58.8  64.7    0.00     0
2016-06-27 19:00  13.8  15.0    25  71.2  60.1  67.5    0.00     0
2016-06-27 18:00  15.2  16.5    19  71.6  62.2  71.8    0.00     0
2016-06-27 17:00  16.7  18.9    19  72.7  62.3  69.5    0.00     0
2016-06-27 16:00  14.2  15.6   342  78.6  65.5  63.5    0.00     0
2016-06-27 15:00   7.8   8.2   256  82.8  61.0  47.2    0.00     0
2016-06-27 14:00   2.5   2.7   200  78.4  64.5  61.8    0.00     0
2016-06-27 13:00   1.9   2.3   243  77.4  66.2  68.0    0.00     0
2016-06-27 12:00   7.0   7.2   217  76.3  64.0  65.3    0.00     0
2016-06-27 11:00   8.4   8.9   228  75.2  65.6  71.6    0.00     0
2016-06-27 10:00   7.2   7.6   222  74.1  66.3  76.2    0.00     0
2016-06-27 09:00  12.2  13.0   217  74.7  64.5  70.1    0.00     0
2016-06-27 08:00  14.8  15.7   211  73.9  64.5  72.0    0.00     0
2016-06-27 07:00  14.4  15.4   210  73.8  64.3  71.9    0.00     0
2016-06-27 06:00  12.1  13.0   212  72.5  66.2  80.4    0.00     0
2016-06-27 05:00  11.3  12.1   212  72.7  65.7  78.5    0.00     0
2016-06-27 04:00  12.4  13.0   220  73.0  65.3  76.4    0.00     0
2016-06-27 03:00  11.7  12.2   216  72.5  66.1  80.0    0.00     0
2016-06-27 02:00   9.1   9.3   203  72.1  66.9  83.3    0.00     0
2016-06-27 01:00   9.7  10.3   207  74.7  66.3  74.9    0.00     0
2016-06-27 00:00  10.5  10.9   193  75.4  70.7  85.0    0.00     0
2016-06-26 23:00   9.3  10.3   171  75.4  72.2  89.7    0.00     0
2016-06-26 22:00   9.3  11.1   169  75.7  72.0  88.1    0.00     0
2016-06-26 21:00  10.1  15.2   154  77.7  71.1  79.7    0.00     0
2016-06-26 20:00   4.5   4.9   175  80.4  68.4  66.2    0.00     0
2016-06-26 19:00   1.9   2.1   191  80.6  65.0  58.4    0.00     0
2016-06-26 18:00   1.4   1.7   168  78.8  65.8  63.9    0.00     0
2016-06-26 17:00   6.8   7.2    55  77.0  66.2  68.8    0.00     0
2016-06-26 16:00   8.6   8.9    49  72.9  71.0  93.8    0.00     0
2016-06-26 15:00   3.1   3.7     4  72.9  70.8  93.2    0.00     0
2016-06-26 14:00  12.8  13.2   358  73.2  71.5  94.4    0.00     0
2016-06-26 13:00   4.1   5.8   181  80.2  72.9  77.9    0.00     0
2016-06-26 12:00  10.5  12.4   122  77.0  71.4  82.6    0.00     0
2016-06-26 11:00   9.1  10.9    89  73.9  70.4  88.5    0.00     0
2016-06-26 10:00   9.1  10.3    20  70.9  70.2  97.7    0.00     0
2016-06-26 09:00  11.7  13.0   220  70.7  70.3  98.6    0.00     0
2016-06-26 08:00  12.1  13.8   184  77.4  68.1  72.6    0.00     0
2016-06-26 07:00   9.7  11.3   168  75.0  68.1  78.8    0.00     0
2016-06-26 06:00  11.9  14.6   169  74.7  67.9  79.1    0.00     0
2016-06-26 05:00   9.7  11.3   159  75.6  67.5  75.7    0.00     0
2016-06-26 04:00  10.9  12.8   155  75.7  67.6  75.4    0.00     0
2016-06-26 03:00  14.0  17.5   161  77.5  67.3  70.3    0.00     0
2016-06-26 02:00  10.7  12.4   146  78.1  66.8  67.7    0.00     0
2016-06-26 01:00  10.3  13.2   150  78.8  66.7  66.0    0.00     0
2016-06-26 00:00   8.7  10.7   146  79.5  66.0  62.9    0.00     0
2016-06-25 23:00   7.4  10.3   143  80.4  65.7  60.3    0.00     0
2016-06-25 22:00   8.2  10.5   146  81.1  65.8  59.0    0.00     0
2016-06-25 21:00  10.5  14.8   153  82.0  65.6  56.9    0.00     0
2016-06-25 20:00  13.0  15.0   154  83.8  64.7  51.9    0.00     0
2016-06-25 19:00  12.4  14.2   156  85.5  63.6  47.4    0.00     0